Zazoe — PH6558 — position and weather

sailwx.info

Track history (hours):
 
Tides and Currents Weather Stations Pressure Air Temp Water Temp Dewpoint Dewpoint Depression Visibility Wind Speed Wind Dir Waves Ship Positions

Zazoe

Last reported at 2016-Aug-22 17:22 UTC. Time now 2016-Dec-09 09:45 UTC.
Position N 51°30' E 004°00'.
Warning: this ship's position is months out of date.

Length 15 m.

Type: Pleasure craft. MMSI: 244050035.

Date/timePositionNaut miles runAvg speedWind from/ knotsBaromVisibWave heightAir tempDewpointWater temp
2016-Aug-22 17:22N 51°30' E 004°00'2 2.9
2016-Aug-22 16:30N 51°27' E 004°01'6 6.3
2016-Aug-22 15:33N 51°22' E 003°55'8 8.4
2016-Aug-22 14:33N 51°22' E 003°42'16 7.8
2016-Aug-22 12:33N 51°23' E 003°17'7 6.9
2016-Aug-22 11:33N 51°20' E 003°07'1 0.2
2016-Aug-22 05:33N 51°19' E 003°07'0 0.0
2016-Aug-22 04:23N 51°19' E 003°07'0 0.0
2016-Aug-22 03:33N 51°19' E 003°07'0 0.0
2016-Aug-22 02:26N 51°19' E 003°07'0 0.0
2016-Aug-22 01:32N 51°19' E 003°07'0 0.0
2016-Aug-21 16:32N 51°19' E 003°07'0 0.0
2016-Aug-21 15:32N 51°19' E 003°07'0 0.3
2016-Aug-21 14:33N 51°19' E 003°07'9 9.0
2016-Aug-21 13:33N 51°14' E 002°54'10 9.5
2016-Aug-21 12:33N 51°10' E 002°41'8 7.9
2016-Aug-21 11:33N 51°06' E 002°30'6 0.4
2016-Aug-20 22:12N 51°03' E 002°22'0 0.0
2016-Aug-20 01:33N 51°03' E 002°22'9 8.5
2016-Aug-20 00:27N 51°03' E 002°07'112 2.9
2016-Aug-18 09:32N 49°41' E 000°08'7 7.2
2016-Aug-18 08:33N 49°34' E 000°03'7 6.8
2016-Aug-18 07:33N 49°28' E 000°01'5 4.7
2016-Aug-18 06:33N 49°26' E 000°08'4 3.7
2016-Aug-18 05:32N 49°26' E 000°14'0 0.3
2016-Aug-18 04:32N 49°25' E 000°14'0 0.0
2016-Aug-18 03:32N 49°25' E 000°14'0 0.0
2016-Aug-18 02:33N 49°25' E 000°14'0 0.0
2016-Aug-18 01:33N 49°25' E 000°14'0 0.0
2016-Aug-18 00:33N 49°25' E 000°14'0 0.0
2016-Aug-17 23:33N 49°25' E 000°14'0 0.0
2016-Aug-17 22:33N 49°25' E 000°14'0 0.0
2016-Aug-17 21:30N 49°25' E 000°14'0 0.0
2016-Aug-17 20:30N 49°25' E 000°14'0 0.0
2016-Aug-17 19:24N 49°25' E 000°14'0 0.0
2016-Aug-17 18:30N 49°25' E 000°14'0 0.0
2016-Aug-17 17:30N 49°25' E 000°14'0 0.0
2016-Aug-17 16:30N 49°25' E 000°14'0 0.0
2016-Aug-17 15:27N 49°25' E 000°14'0 0.0
2016-Aug-17 14:33N 49°25' E 000°14'0 0.0
2016-Aug-17 13:33N 49°25' E 000°14'0 0.0
2016-Aug-17 12:30N 49°25' E 000°14'0 0.0
2016-Aug-17 11:33N 49°25' E 000°14'0 0.0
2016-Aug-17 08:29N 49°25' E 000°14'0 0.0
2016-Aug-17 07:11N 49°25' E 000°14'0 0.0
2016-Aug-17 06:14N 49°25' E 000°14'0 0.0
2016-Aug-17 05:32N 49°25' E 000°14'0 0.0
2016-Aug-17 04:29N 49°25' E 000°14'0 0.0
2016-Aug-17 03:33N 49°25' E 000°14'0 0.0
2016-Aug-17 02:33N 49°25' E 000°14'0 0.0
2016-Aug-17 01:33N 49°25' E 000°14'0 0.0
2016-Aug-17 00:33N 49°25' E 000°14'0 0.0
2016-Aug-16 23:33N 49°25' E 000°14'0 0.0
2016-Aug-16 22:33N 49°25' E 000°14'0 0.0
2016-Aug-16 21:33N 49°25' E 000°14'0 0.0
2016-Aug-16 20:33N 49°25' E 000°14'0 0.0
2016-Aug-16 19:33N 49°25' E 000°14'0 0.0
2016-Aug-16 18:30N 49°25' E 000°14'0 0.0
2016-Aug-16 17:33N 49°25' E 000°14'0 0.0
2016-Aug-16 16:33N 49°25' E 000°14'0 0.0
2016-Aug-16 15:33N 49°25' E 000°14'0 0.0
2016-Aug-16 14:30N 49°25' E 000°14'0 0.0
2016-Aug-16 13:30N 49°25' E 000°14'0 0.0
2016-Aug-16 12:33N 49°25' E 000°14'0 0.0
2016-Aug-16 11:33N 49°25' E 000°14'0 0.0
2016-Aug-16 10:33N 49°25' E 000°14'0 0.0
2016-Aug-16 09:27N 49°25' E 000°14'0 0.0
2016-Aug-16 08:33N 49°25' E 000°14'0 0.0
2016-Aug-16 07:30N 49°25' E 000°14'0 0.0
2016-Aug-16 06:15N 49°25' E 000°14'0 0.0
2016-Aug-16 04:27N 49°25' E 000°14'0 0.0
2016-Aug-16 03:33N 49°25' E 000°14'0 0.0
2016-Aug-16 02:30N 49°25' E 000°14'0 0.0
2016-Aug-16 01:33N 49°25' E 000°14'0 0.0
2016-Aug-16 00:33N 49°25' E 000°14'0 0.0
2016-Aug-15 23:33N 49°25' E 000°14'0 0.0
2016-Aug-15 22:33N 49°25' E 000°14'0 0.0
2016-Aug-15 21:33N 49°25' E 000°14'0 0.0
2016-Aug-15 20:33N 49°25' E 000°14'0 0.0
2016-Aug-15 19:33N 49°25' E 000°14'0 0.0
2016-Aug-15 18:33N 49°25' E 000°14'0 0.0
2016-Aug-15 17:33N 49°25' E 000°14'2 2.4
2016-Aug-15 16:34N 49°26' E 000°10'7 7.4
2016-Aug-15 15:33N 49°27' W 000°01'14 6.3
2016-Aug-15 13:20N 49°25' W 000°22'  
Track history (hours):
 
Tides and Currents Weather Stations Pressure Air Temp Water Temp Dewpoint Dewpoint Depression Visibility Wind Speed Wind Dir Waves Ship Positions

Zazoe

Last reported at 2016-Aug-22 17:22 UTC. Time now 2016-Dec-09 09:45 UTC.
Position N 51°30' E 004°00'.
Warning: this ship's position is months out of date.

Length 15 m.

Type: Pleasure craft. MMSI: 244050035.

Date/timePositionNaut miles runAvg speedWind from/ knotsBaromVisibWave heightAir tempDewpointWater temp
2016-Aug-22 17:22N 51°30' E 004°00'2 2.9
2016-Aug-22 16:30N 51°27' E 004°01'6 6.3
2016-Aug-22 15:33N 51°22' E 003°55'8 8.4
2016-Aug-22 14:33N 51°22' E 003°42'16 7.8
2016-Aug-22 12:33N 51°23' E 003°17'7 6.9
2016-Aug-22 11:33N 51°20' E 003°07'1 0.2
2016-Aug-22 05:33N 51°19' E 003°07'0 0.0
2016-Aug-22 04:23N 51°19' E 003°07'0 0.0
2016-Aug-22 03:33N 51°19' E 003°07'0 0.0
2016-Aug-22 02:26N 51°19' E 003°07'0 0.0
2016-Aug-22 01:32N 51°19' E 003°07'0 0.0
2016-Aug-21 16:32N 51°19' E 003°07'0 0.0
2016-Aug-21 15:32N 51°19' E 003°07'0 0.3
2016-Aug-21 14:33N 51°19' E 003°07'9 9.0
2016-Aug-21 13:33N 51°14' E 002°54'10 9.5
2016-Aug-21 12:33N 51°10' E 002°41'8 7.9
2016-Aug-21 11:33N 51°06' E 002°30'6 0.4
2016-Aug-20 22:12N 51°03' E 002°22'0 0.0
2016-Aug-20 01:33N 51°03' E 002°22'9 8.5
2016-Aug-20 00:27N 51°03' E 002°07'112 2.9
2016-Aug-18 09:32N 49°41' E 000°08'7 7.2
2016-Aug-18 08:33N 49°34' E 000°03'7 6.8
2016-Aug-18 07:33N 49°28' E 000°01'5 4.7
2016-Aug-18 06:33N 49°26' E 000°08'4 3.7
2016-Aug-18 05:32N 49°26' E 000°14'0 0.3
2016-Aug-18 04:32N 49°25' E 000°14'0 0.0
2016-Aug-18 03:32N 49°25' E 000°14'0 0.0
2016-Aug-18 02:33N 49°25' E 000°14'0 0.0
2016-Aug-18 01:33N 49°25' E 000°14'0 0.0
2016-Aug-18 00:33N 49°25' E 000°14'0 0.0
2016-Aug-17 23:33N 49°25' E 000°14'0 0.0
2016-Aug-17 22:33N 49°25' E 000°14'0 0.0
2016-Aug-17 21:30N 49°25' E 000°14'0 0.0
2016-Aug-17 20:30N 49°25' E 000°14'0 0.0
2016-Aug-17 19:24N 49°25' E 000°14'0 0.0
2016-Aug-17 18:30N 49°25' E 000°14'0 0.0
2016-Aug-17 17:30N 49°25' E 000°14'0 0.0
2016-Aug-17 16:30N 49°25' E 000°14'0 0.0
2016-Aug-17 15:27N 49°25' E 000°14'0 0.0
2016-Aug-17 14:33N 49°25' E 000°14'0 0.0
2016-Aug-17 13:33N 49°25' E 000°14'0 0.0
2016-Aug-17 12:30N 49°25' E 000°14'0 0.0
2016-Aug-17 11:33N 49°25' E 000°14'0 0.0
2016-Aug-17 08:29N 49°25' E 000°14'0 0.0
2016-Aug-17 07:11N 49°25' E 000°14'0 0.0
2016-Aug-17 06:14N 49°25' E 000°14'0 0.0
2016-Aug-17 05:32N 49°25' E 000°14'0 0.0
2016-Aug-17 04:29N 49°25' E 000°14'0 0.0
2016-Aug-17 03:33N 49°25' E 000°14'0 0.0
2016-Aug-17 02:33N 49°25' E 000°14'0 0.0
2016-Aug-17 01:33N 49°25' E 000°14'0 0.0
2016-Aug-17 00:33N 49°25' E 000°14'0 0.0
2016-Aug-16 23:33N 49°25' E 000°14'0 0.0
2016-Aug-16 22:33N 49°25' E 000°14'0 0.0
2016-Aug-16 21:33N 49°25' E 000°14'0 0.0
2016-Aug-16 20:33N 49°25' E 000°14'0 0.0
2016-Aug-16 19:33N 49°25' E 000°14'0 0.0
2016-Aug-16 18:30N 49°25' E 000°14'0 0.0
2016-Aug-16 17:33N 49°25' E 000°14'0 0.0
2016-Aug-16 16:33N 49°25' E 000°14'0 0.0
2016-Aug-16 15:33N 49°25' E 000°14'0 0.0
2016-Aug-16 14:30N 49°25' E 000°14'0 0.0
2016-Aug-16 13:30N 49°25' E 000°14'0 0.0
2016-Aug-16 12:33N 49°25' E 000°14'0 0.0
2016-Aug-16 11:33N 49°25' E 000°14'0 0.0
2016-Aug-16 10:33N 49°25' E 000°14'0 0.0
2016-Aug-16 09:27N 49°25' E 000°14'0 0.0
2016-Aug-16 08:33N 49°25' E 000°14'0 0.0
2016-Aug-16 07:30N 49°25' E 000°14'0 0.0
2016-Aug-16 06:15N 49°25' E 000°14'0 0.0
2016-Aug-16 04:27N 49°25' E 000°14'0 0.0
2016-Aug-16 03:33N 49°25' E 000°14'0 0.0
2016-Aug-16 02:30N 49°25' E 000°14'0 0.0
2016-Aug-16 01:33N 49°25' E 000°14'0 0.0
2016-Aug-16 00:33N 49°25' E 000°14'0 0.0
2016-Aug-15 23:33N 49°25' E 000°14'0 0.0
2016-Aug-15 22:33N 49°25' E 000°14'0 0.0
2016-Aug-15 21:33N 49°25' E 000°14'0 0.0
2016-Aug-15 20:33N 49°25' E 000°14'0 0.0
2016-Aug-15 19:33N 49°25' E 000°14'0 0.0
2016-Aug-15 18:33N 49°25' E 000°14'0 0.0
2016-Aug-15 17:33N 49°25' E 000°14'2 2.4
2016-Aug-15 16:34N 49°26' E 000°10'7 7.4
2016-Aug-15 15:33N 49°27' W 000°01'14 6.3
2016-Aug-15 13:20N 49°25' W 000°22'  

Dump ship's entire track history